Time;durP1;ratioP1;P1;durP2;ratioP2;P2;SDS_P1;SDS_P2;PMS_P1;PMS_P2;Temp;Humidity;BMP_temperature;BMP_pressure;BME280_temperature;BME280_humidity;BME280_pressure;Samples;Min_cycle;Max_cycle;Signal;HPM_P1;HPM_P2
2022/04/09 00:01:20;;;;;;;4.82;3.45;;;4.90;99.90;;;;;;5042207;28;20050;-72
2022/04/09 00:03:49;;;;;;;3.97;3.03;;;4.90;99.90;;;;;;5044319;28;20056;-72
2022/04/09 00:06:16;;;;;;;4.63;2.97;;;4.90;99.90;;;;;;5040697;28;20120;-72
2022/04/09 00:08:46;;;;;;;4.35;3.53;;;4.90;99.90;;;;;;5020458;28;20046;-72
2022/04/09 00:11:13;;;;;;;3.90;3.05;;;4.90;99.90;;;;;;5017292;28;20124;-72
2022/04/09 00:13:41;;;;;;;4.38;3.40;;;4.90;99.90;;;;;;5032985;28;20043;-72
2022/04/09 00:16:08;;;;;;;4.43;3.60;;;4.90;99.90;;;;;;5032019;28;20046;-72
2022/04/09 00:18:35;;;;;;;3.80;3.10;;;4.90;99.90;;;;;;5034473;28;20080;-72
2022/04/09 00:21:02;;;;;;;6.82;3.63;;;4.90;99.90;;;;;;5046706;28;20049;-72
2022/04/09 00:23:30;;;;;;;4.95;3.97;;;4.90;99.90;;;;;;5050077;28;20052;-71
2022/04/09 00:25:59;;;;;;;4.45;3.38;;;4.90;99.90;;;;;;5049712;28;20466;-72
2022/04/09 00:28:26;;;;;;;5.40;3.55;;;4.90;99.90;;;;;;5019792;28;20528;-71
2022/04/09 00:30:52;;;;;;;4.55;3.28;;;4.90;99.90;;;;;;5032779;28;20049;-72
2022/04/09 00:33:19;;;;;;;5.07;3.53;;;4.90;99.90;;;;;;5032923;28;20455;-72
2022/04/09 00:35:47;;;;;;;4.25;3.80;;;4.90;99.90;;;;;;5043820;28;20069;-72
2022/04/09 00:38:16;;;;;;;4.53;3.65;;;4.90;99.90;;;;;;5035035;28;20059;-72
2022/04/09 00:40:43;;;;;;;5.15;3.03;;;4.90;99.90;;;;;;5031370;28;20096;-72
2022/04/09 00:43:10;;;;;;;5.80;4.22;;;4.90;99.90;;;;;;5040758;28;20489;-72
2022/04/09 00:45:36;;;;;;;5.80;3.55;;;4.90;99.90;;;;;;5043209;28;20080;-72
2022/04/09 00:48:05;;;;;;;4.78;3.50;;;4.90;99.90;;;;;;5032062;28;20503;-71
2022/04/09 00:50:32;;;;;;;4.00;3.35;;;4.90;99.90;;;;;;5033503;28;20050;-71
2022/04/09 00:52:59;;;;;;;4.32;3.50;;;4.90;99.90;;;;;;5033590;28;20520;-72
2022/04/09 00:58:17;;;;;;;5.18;3.97;;;4.90;99.90;;;;;;5023232;28;20416;-71
2022/04/09 01:00:44;;;;;;;5.28;3.97;;;4.80;99.90;;;;;;5037654;28;20049;-71
2022/04/09 01:03:13;;;;;;;4.10;3.70;;;4.80;99.90;;;;;;5049766;28;20072;-71
2022/04/09 01:05:40;;;;;;;5.20;4.18;;;4.80;99.90;;;;;;5034289;28;20041;-72
2022/04/09 01:08:07;;;;;;;7.63;4.05;;;4.80;99.90;;;;;;5029419;28;20381;-71
2022/04/09 01:10:34;;;;;;;5.57;3.88;;;4.70;99.90;;;;;;5031508;28;20098;-71
2022/04/09 01:13:01;;;;;;;4.57;3.90;;;4.80;99.90;;;;;;5036778;28;20095;-72
2022/04/09 01:15:28;;;;;;;4.88;4.38;;;4.80;99.90;;;;;;5047745;28;20463;-71
2022/04/09 01:17:55;;;;;;;4.97;4.10;;;4.70;99.90;;;;;;5050020;28;20052;-72
2022/04/09 01:20:22;;;;;;;5.53;3.72;;;4.80;99.90;;;;;;5039080;28;20481;-71
2022/04/09 01:22:49;;;;;;;5.32;3.97;;;4.80;99.90;;;;;;5035017;28;20052;-72
2022/04/09 01:25:16;;;;;;;5.13;4.18;;;4.70;99.90;;;;;;5049373;28;20057;-72
2022/04/09 01:27:43;;;;;;;5.88;4.57;;;4.70;99.90;;;;;;5034471;28;20057;-72
2022/04/09 01:30:10;;;;;;;4.65;3.88;;;4.70;99.90;;;;;;5045905;28;20056;-71
2022/04/09 01:32:40;;;;;;;;;;;4.70;99.90;;;;;;5045898;28;20040;-71
2022/04/09 01:35:07;;;;;;;4.97;4.03;;;4.70;99.90;;;;;;5045238;28;19925;-71
2022/04/09 01:37:34;;;;;;;4.85;4.07;;;4.70;99.90;;;;;;5052318;28;20049;-71
2022/04/09 01:40:02;;;;;;;4.70;4.05;;;4.60;99.90;;;;;;5043005;28;20052;-71
2022/04/09 01:42:29;;;;;;;8.35;4.80;;;4.60;99.90;;;;;;5053481;28;20056;-71
2022/04/09 01:44:59;;;;;;;5.30;4.18;;;4.60;99.90;;;;;;5044767;28;20132;-71
2022/04/09 01:47:25;;;;;;;5.78;4.47;;;4.50;99.90;;;;;;5053481;28;20057;-71
2022/04/09 01:49:52;;;;;;;6.75;4.50;;;4.50;99.90;;;;;;5047658;28;20046;-71
2022/04/09 01:52:19;;;;;;;6.78;4.55;;;4.40;99.90;;;;;;5034620;28;20378;-72
2022/04/09 01:54:46;;;;;;;6.45;5.30;;;4.40;99.90;;;;;;5035425;28;20041;-72
2022/04/09 01:57:15;;;;;;;5.20;4.03;;;4.30;99.90;;;;;;5037111;28;20049;-71
2022/04/09 01:59:48;;;;;;;5.45;4.80;;;4.30;99.90;;;;;;5035818;28;20405;-72
2022/04/09 02:02:15;;;;;;;7.90;5.25;;;4.20;99.90;;;;;;5033274;28;20218;-71
2022/04/09 02:04:42;;;;;;;6.28;5.30;;;4.20;99.90;;;;;;5042817;28;20409;-72
2022/04/09 02:07:09;;;;;;;6.97;4.57;;;4.10;99.90;;;;;;5026107;28;20049;-72
2022/04/09 02:09:36;;;;;;;6.75;4.95;;;4.20;99.90;;;;;;5032625;28;20060;-71
2022/04/09 02:12:03;;;;;;;9.63;6.82;;;4.10;99.90;;;;;;5046152;28;20053;-71
2022/04/09 02:14:30;;;;;;;8.27;5.43;;;4.10;99.90;;;;;;5047675;28;20045;-71
2022/04/09 02:16:56;;;;;;;6.28;5.28;;;4.00;99.90;;;;;;5051633;28;20048;-71
2022/04/09 02:19:23;;;;;;;5.82;4.93;;;4.00;99.90;;;;;;5037886;28;20053;-72
2022/04/09 02:21:50;;;;;;;7.13;5.60;;;4.00;99.90;;;;;;5035406;28;20056;-72
2022/04/09 02:24:18;;;;;;;7.78;5.72;;;3.90;99.90;;;;;;5035617;28;20037;-72
2022/04/09 02:26:44;;;;;;;7.82;5.65;;;3.90;99.90;;;;;;5040342;28;20485;-71
2022/04/09 02:29:12;;;;;;;7.82;5.97;;;3.90;99.90;;;;;;5042089;28;20089;-72
2022/04/09 02:31:39;;;;;;;10.57;7.05;;;3.90;99.90;;;;;;5046460;28;20042;-68
2022/04/09 02:34:06;;;;;;;63.28;42.13;;;3.90;99.90;;;;;;5034751;28;20513;-74
2022/04/09 02:36:34;;;;;;;27.30;19.58;;;3.80;99.90;;;;;;5045272;28;20136;-67
2022/04/09 02:39:01;;;;;;;18.42;14.15;;;3.80;99.90;;;;;;5030448;28;20046;-69
2022/04/09 02:41:29;;;;;;;14.32;9.50;;;3.80;99.90;;;;;;5045033;28;20057;-69
2022/04/09 02:43:59;;;;;;;11.90;8.60;;;3.70;99.90;;;;;;5042567;28;20509;-69
2022/04/09 02:46:26;;;;;;;10.35;6.75;;;3.70;99.90;;;;;;5036562;28;20053;-68
2022/04/09 02:48:53;;;;;;;8.23;6.97;;;3.70;99.90;;;;;;5033029;28;20049;-69
2022/04/09 02:51:20;;;;;;;8.98;7.25;;;3.60;99.90;;;;;;5042971;28;20081;-69
2022/04/09 02:53:46;;;;;;;9.27;7.40;;;3.60;99.90;;;;;;5034656;28;20056;-69
2022/04/09 02:56:13;;;;;;;8.00;6.82;;;3.60;99.90;;;;;;5032392;28;20075;-69
2022/04/09 02:58:40;;;;;;;8.35;7.13;;;3.60;99.90;;;;;;5040679;28;20064;-69
2022/04/09 03:01:07;;;;;;;8.52;6.85;;;3.50;99.90;;;;;;5037701;28;20042;-69
2022/04/09 03:03:34;;;;;;;6.82;5.78;;;3.50;99.90;;;;;;5032541;28;20135;-69
2022/04/09 03:06:01;;;;;;;7.80;7.03;;;3.40;99.90;;;;;;5039089;28;20044;-69
2022/04/09 03:08:28;;;;;;;7.93;6.75;;;3.40;99.90;;;;;;5047092;28;20060;-69
2022/04/09 03:10:55;;;;;;;9.13;7.95;;;3.30;99.90;;;;;;5016218;28;20056;-69
2022/04/09 03:13:22;;;;;;;9.90;7.72;;;3.30;99.90;;;;;;5048714;28;20063;-69
2022/04/09 03:15:49;;;;;;;10.88;7.70;;;3.30;99.90;;;;;;5050322;28;20045;-69
2022/04/09 03:18:15;;;;;;;10.15;7.75;;;3.20;99.90;;;;;;5040123;28;20063;-69
2022/04/09 03:20:42;;;;;;;10.05;8.25;;;3.20;99.90;;;;;;5038895;28;20049;-69
2022/04/09 03:23:09;;;;;;;10.55;7.75;;;3.20;99.90;;;;;;5011773;28;20061;-69
2022/04/09 03:25:36;;;;;;;8.07;6.68;;;3.10;99.90;;;;;;5046414;28;20060;-69
2022/04/09 03:28:04;;;;;;;8.93;7.57;;;3.10;99.90;;;;;;5042537;28;20042;-69
2022/04/09 03:30:30;;;;;;;7.90;6.60;;;3.10;99.90;;;;;;5043505;28;20045;-69
2022/04/09 03:32:57;;;;;;;8.95;7.53;;;3.10;99.90;;;;;;5030066;28;20049;-72
2022/04/09 03:35:24;;;;;;;11.05;7.65;;;3.10;99.90;;;;;;5031159;28;20049;-70
2022/04/09 03:37:51;;;;;;;8.90;7.95;;;3.10;99.90;;;;;;5048398;28;20056;-69
2022/04/09 03:40:18;;;;;;;10.52;7.57;;;3.10;99.90;;;;;;5032397;28;20041;-68
2022/04/09 03:42:45;;;;;;;11.63;8.85;;;3.10;99.90;;;;;;5033453;28;20045;-69
2022/04/09 03:45:12;;;;;;;12.38;8.13;;;3.10;99.90;;;;;;5032743;28;20042;-69
2022/04/09 03:47:39;;;;;;;10.95;8.30;;;3.10;99.90;;;;;;5043121;28;20052;-69
2022/04/09 03:50:06;;;;;;;9.98;7.38;;;3.10;99.90;;;;;;5035082;28;20053;-70
2022/04/09 03:52:33;;;;;;;17.13;9.35;;;3.10;99.90;;;;;;5048182;28;20051;-69
2022/04/09 03:55:00;;;;;;;9.82;8.40;;;3.10;99.90;;;;;;5034219;28;20400;-69
2022/04/09 03:57:27;;;;;;;10.93;7.53;;;3.00;99.90;;;;;;5051649;28;20056;-70
2022/04/09 03:59:56;;;;;;;10.35;7.70;;;3.00;99.90;;;;;;5049372;28;20439;-70
2022/04/09 04:02:23;;;;;;;13.52;10.05;;;3.00;99.90;;;;;;5047192;28;20052;-69
2022/04/09 04:04:51;;;;;;;11.00;7.95;;;3.00;99.90;;;;;;5021705;28;20052;-70
2022/04/09 04:07:22;;;;;;;10.93;7.78;;;2.90;99.90;;;;;;5040578;28;20068;-69
2022/04/09 04:09:52;;;;;;;9.63;8.07;;;2.90;99.90;;;;;;5037693;28;20056;-69
2022/04/09 04:12:18;;;;;;;;;;;2.90;99.90;;;;;;5033005;28;20053;-69
2022/04/09 04:14:45;;;;;;;9.23;7.35;;;2.90;99.90;;;;;;5050499;28;20015;-69
2022/04/09 04:17:12;;;;;;;12.60;7.95;;;2.90;99.90;;;;;;5045681;28;20088;-69
2022/04/09 04:19:39;;;;;;;10.05;7.90;;;2.90;99.90;;;;;;5031955;28;20064;-69
2022/04/09 04:22:08;;;;;;;11.15;7.53;;;2.90;99.90;;;;;;5046987;28;20056;-70
2022/04/09 04:24:38;;;;;;;9.17;8.27;;;2.90;99.90;;;;;;5063094;28;20058;-70
2022/04/09 04:27:05;;;;;;;9.38;7.40;;;2.90;99.90;;;;;;5062111;28;20938;-69
2022/04/09 04:29:33;;;;;;;10.50;7.93;;;2.80;99.90;;;;;;5031578;28;20053;-69
2022/04/09 04:32:00;;;;;;;10.80;6.90;;;2.90;99.90;;;;;;5034334;28;20041;-69
2022/04/09 04:34:27;;;;;;;9.93;7.55;;;2.80;99.90;;;;;;5031756;28;20049;-70
2022/04/09 04:36:54;;;;;;;9.73;7.38;;;2.80;99.90;;;;;;5035540;28;20060;-69
2022/04/09 04:39:21;;;;;;;11.85;8.20;;;2.80;99.90;;;;;;5025146;28;20125;-69
2022/04/09 04:41:47;;;;;;;9.32;7.65;;;2.80;99.90;;;;;;5042858;28;20045;-69
2022/04/09 04:44:15;;;;;;;11.18;8.75;;;2.80;99.90;;;;;;5044221;28;20087;-69
2022/04/09 04:46:42;;;;;;;12.35;9.02;;;2.80;99.90;;;;;;5048735;28;20488;-69
2022/04/09 04:49:09;;;;;;;9.80;8.05;;;2.70;99.90;;;;;;5032551;28;20067;-69
2022/04/09 04:51:36;;;;;;;10.98;8.50;;;2.70;99.90;;;;;;5032810;28;20084;-69
2022/04/09 04:54:03;;;;;;;11.07;8.30;;;2.70;99.90;;;;;;5038601;28;20068;-69
2022/04/09 04:56:30;;;;;;;12.43;9.35;;;2.70;99.90;;;;;;5043803;28;20132;-70
2022/04/09 04:58:57;;;;;;;10.30;8.18;;;2.70;99.90;;;;;;5040168;28;20052;-70
2022/04/09 05:01:24;;;;;;;11.50;8.90;;;2.70;99.90;;;;;;5038207;28;20041;-69
2022/04/09 05:03:51;;;;;;;13.82;9.45;;;2.70;99.90;;;;;;5053884;28;20052;-69
2022/04/09 05:06:18;;;;;;;11.85;8.75;;;2.70;99.90;;;;;;5054201;28;20065;-69
2022/04/09 05:08:45;;;;;;;10.32;8.57;;;2.60;99.90;;;;;;5050455;28;20041;-70
2022/04/09 05:11:12;;;;;;;13.35;9.18;;;2.60;99.90;;;;;;5050039;28;20048;-69
2022/04/09 05:13:38;;;;;;;11.20;8.95;;;2.60;99.90;;;;;;5035155;28;20548;-69
2022/04/09 05:16:05;;;;;;;13.90;9.57;;;2.60;99.90;;;;;;5034876;28;20057;-70
2022/04/09 05:18:33;;;;;;;12.48;9.30;;;2.50;99.90;;;;;;5014224;28;20049;-69
2022/04/09 05:21:00;;;;;;;13.93;10.80;;;2.50;99.90;;;;;;5048390;28;20056;-69
2022/04/09 05:23:26;;;;;;;13.30;9.50;;;2.50;99.90;;;;;;5054527;28;20053;-69
2022/04/09 05:25:53;;;;;;;16.05;10.93;;;2.40;99.90;;;;;;5049987;28;20436;-69
2022/04/09 05:28:20;;;;;;;15.50;10.48;;;2.50;99.90;;;;;;5033753;28;20054;-69
2022/04/09 05:30:50;;;;;;;14.93;9.98;;;2.40;99.90;;;;;;5035944;28;20053;-70
2022/04/09 05:33:18;;;;;;;14.13;10.65;;;2.40;99.90;;;;;;5017549;28;20084;-69
2022/04/09 05:35:45;;;;;;;13.43;10.20;;;2.40;99.90;;;;;;5050905;28;20053;-69
2022/04/09 05:38:12;;;;;;;14.90;11.52;;;2.40;99.90;;;;;;5042845;28;20405;-70
2022/04/09 05:40:39;;;;;;;13.02;9.55;;;2.30;99.90;;;;;;5025269;28;20053;-70
2022/04/09 05:43:06;;;;;;;13.45;10.30;;;2.30;99.90;;;;;;5050922;28;20068;-69
2022/04/09 05:45:33;;;;;;;15.05;11.10;;;2.30;99.90;;;;;;5040661;28;20050;-69
2022/04/09 05:48:00;;;;;;;14.45;10.20;;;2.30;99.90;;;;;;5068067;28;20064;-69
2022/04/09 05:50:27;;;;;;;15.05;12.55;;;2.30;99.90;;;;;;5053495;28;20135;-69
2022/04/09 05:52:54;;;;;;;13.40;9.35;;;2.30;99.90;;;;;;5051345;28;20053;-69
2022/04/09 05:55:21;;;;;;;14.18;9.20;;;2.30;99.90;;;;;;5053519;28;20589;-69
2022/04/09 05:57:48;;;;;;;13.55;10.20;;;2.30;99.90;;;;;;5047239;28;20042;-70
2022/04/09 06:00:16;;;;;;;15.57;10.38;;;2.30;99.90;;;;;;5052561;28;20405;-69
2022/04/09 06:02:44;;;;;;;14.40;10.55;;;2.40;99.90;;;;;;5035276;28;20048;-69
2022/04/09 06:05:11;;;;;;;14.68;10.90;;;2.40;99.90;;;;;;5049642;28;20051;-69
2022/04/09 06:07:38;;;;;;;19.05;12.95;;;2.50;99.90;;;;;;5070819;28;20065;-70
2022/04/09 06:10:06;;;;;;;15.23;10.82;;;2.50;99.90;;;;;;5039711;28;20518;-70
2022/04/09 06:12:33;;;;;;;16.08;11.40;;;2.60;99.90;;;;;;5035008;28;20115;-69
2022/04/09 06:15:01;;;;;;;15.93;10.70;;;2.60;99.90;;;;;;5047852;28;20568;-69
2022/04/09 06:17:28;;;;;;;13.35;10.55;;;2.70;99.90;;;;;;5028398;28;20072;-69
2022/04/09 06:19:55;;;;;;;20.98;12.60;;;2.70;99.90;;;;;;5035808;28;20163;-69
2022/04/09 06:22:22;;;;;;;14.35;11.02;;;2.70;99.90;;;;;;5035893;28;20053;-70
2022/04/09 06:24:49;;;;;;;16.52;12.07;;;2.80;99.90;;;;;;5046396;28;20048;-69
2022/04/09 06:27:16;;;;;;;18.17;12.82;;;2.90;99.90;;;;;;5042125;28;20056;-69
2022/04/09 06:29:43;;;;;;;14.32;11.65;;;2.90;99.90;;;;;;5045703;28;20439;-70
2022/04/09 06:32:10;;;;;;;14.80;10.32;;;3.00;99.90;;;;;;5037400;28;20452;-70
2022/04/09 06:34:37;;;;;;;13.82;9.85;;;3.00;99.90;;;;;;5063919;28;20049;-70
2022/04/09 06:37:04;;;;;;;15.15;10.77;;;3.10;99.90;;;;;;5048760;28;20053;-70
2022/04/09 06:39:35;;;;;;;15.82;10.65;;;3.10;99.90;;;;;;5044320;28;20048;-69
2022/04/09 06:42:02;;;;;;;15.20;9.80;;;3.20;99.90;;;;;;5047309;28;20057;-69
2022/04/09 06:44:29;;;;;;;15.93;11.75;;;3.20;99.90;;;;;;5033752;28;20056;-69
2022/04/09 06:46:56;;;;;;;17.45;11.15;;;3.30;99.90;;;;;;5034272;28;20060;-69
2022/04/09 06:49:23;;;;;;;14.00;10.15;;;3.30;99.90;;;;;;5078558;28;20054;-69
2022/04/09 06:51:50;;;;;;;14.45;10.02;;;3.40;99.90;;;;;;5046179;28;20045;-70
2022/04/09 06:54:18;;;;;;;14.13;10.68;;;3.40;99.90;;;;;;5033621;28;20046;-69
2022/04/09 06:56:45;;;;;;;13.40;10.15;;;3.50;99.90;;;;;;5031777;28;20096;-70
2022/04/09 06:59:12;;;;;;;11.02;9.02;;;3.50;99.90;;;;;;5045934;28;20044;-69
2022/04/09 07:01:39;;;;;;;13.60;9.15;;;3.60;99.90;;;;;;5027608;28;20064;-69
2022/04/09 07:04:06;;;;;;;14.65;9.07;;;3.60;99.90;;;;;;5037039;28;20519;-69
2022/04/09 07:06:33;;;;;;;14.18;9.00;;;3.70;99.90;;;;;;5040803;28;20477;-70
2022/04/09 07:09:00;;;;;;;14.65;9.65;;;3.70;99.90;;;;;;5042013;28;20041;-69
2022/04/09 07:11:27;;;;;;;12.32;9.35;;;3.80;99.90;;;;;;5044777;28;20056;-69
2022/04/09 07:13:54;;;;;;;12.75;9.10;;;3.90;99.90;;;;;;5034230;28;20103;-69
2022/04/09 07:16:21;;;;;;;11.32;9.10;;;4.00;99.90;;;;;;5036389;28;20049;-69
2022/04/09 07:18:48;;;;;;;13.95;9.13;;;4.00;99.90;;;;;;5038494;28;20049;-69
2022/04/09 07:21:15;;;;;;;13.02;9.50;;;4.00;99.90;;;;;;5040958;28;20045;-69
2022/04/09 07:23:42;;;;;;;11.38;8.80;;;4.10;99.90;;;;;;5017102;28;20500;-69
2022/04/09 07:26:09;;;;;;;11.80;8.32;;;4.10;99.90;;;;;;5019429;28;20045;-69
2022/04/09 07:28:36;;;;;;;15.95;9.75;;;4.20;99.90;;;;;;5047143;28;20818;-69
2022/04/09 07:31:03;;;;;;;12.32;9.88;;;4.30;99.90;;;;;;5009815;28;20083;-69
2022/04/09 07:33:30;;;;;;;42.33;28.17;;;4.30;99.90;;;;;;5042854;28;20081;-69
2022/04/09 07:35:57;;;;;;;55.38;35.47;;;4.40;99.90;;;;;;5036777;28;20045;-69
2022/04/09 07:38:24;;;;;;;17.88;12.05;;;4.50;99.90;;;;;;5042985;28;20128;-72
2022/04/09 07:40:50;;;;;;;15.13;9.70;;;4.60;99.90;;;;;;5003468;28;20553;-70
2022/04/09 07:43:17;;;;;;;15.98;9.52;;;4.70;99.90;;;;;;5032442;28;20060;-70
2022/04/09 07:45:44;;;;;;;11.43;9.25;;;4.70;99.90;;;;;;5035887;28;20100;-70
2022/04/09 07:48:11;;;;;;;13.35;8.52;;;4.80;99.90;;;;;;5031020;28;20060;-70
2022/04/09 07:50:38;;;;;;;11.65;8.32;;;4.80;99.90;;;;;;5033017;28;20045;-71
2022/04/09 07:53:07;;;;;;;13.98;8.82;;;4.90;99.90;;;;;;5034096;28;20052;-68
2022/04/09 07:55:35;;;;;;;12.02;8.50;;;4.90;99.90;;;;;;5046858;28;20467;-70
2022/04/09 07:58:02;;;;;;;14.85;8.75;;;5.00;99.90;;;;;;5032807;28;20132;-71
2022/04/09 08:00:32;;;;;;;11.65;8.35;;;5.00;99.90;;;;;;5025080;28;20055;-70
2022/04/09 08:02:59;;;;;;;10.40;8.15;;;5.10;99.90;;;;;;5040903;28;20052;-71
2022/04/09 08:05:29;;;;;;;13.10;9.45;;;5.10;99.90;;;;;;5040447;28;20057;-71
2022/04/09 08:07:57;;;;;;;12.85;8.38;;;5.20;99.90;;;;;;5048302;28;20049;-71
2022/04/09 08:10:24;;;;;;;16.60;9.05;;;5.30;99.90;;;;;;5018691;28;20049;-71
2022/04/09 08:12:53;;;;;;;12.50;7.95;;;5.30;99.90;;;;;;5044581;28;20045;-71
2022/04/09 08:15:21;;;;;;;11.25;8.40;;;5.30;99.90;;;;;;5045117;28;20128;-71
2022/04/09 08:17:48;;;;;;;12.23;8.40;;;5.40;99.90;;;;;;5041801;28;20056;-73
2022/04/09 08:20:18;;;;;;;36.45;23.17;;;5.50;99.90;;;;;;5044281;28;20049;-73
2022/04/09 08:22:45;;;;;;;57.78;38.70;;;5.50;99.90;;;;;;5032327;28;20057;-72
2022/04/09 08:25:12;;;;;;;13.45;9.05;;;5.70;99.90;;;;;;5034195;28;20099;-71
2022/04/09 08:27:39;;;;;;;16.00;8.95;;;5.70;99.90;;;;;;5036461;28;20127;-72
2022/04/09 08:30:07;;;;;;;11.50;6.80;;;5.80;99.90;;;;;;5049728;28;20404;-71
2022/04/09 08:32:34;;;;;;;14.23;7.80;;;5.90;99.90;;;;;;5020021;28;20075;-71
2022/04/09 08:35:01;;;;;;;12.30;7.75;;;5.90;99.90;;;;;;5043007;28;20045;-72
2022/04/09 08:37:29;;;;;;;11.43;7.22;;;6.00;99.90;;;;;;5002689;28;20457;-70
2022/04/09 08:39:56;;;;;;;11.68;6.68;;;6.10;99.90;;;;;;5037438;28;20046;-71
2022/04/09 08:42:23;;;;;;;9.90;6.43;;;6.10;99.90;;;;;;5050507;28;20045;-72
2022/04/09 08:44:50;;;;;;;18.50;5.55;;;6.20;99.90;;;;;;5046164;28;20061;-71
2022/04/09 08:47:17;;;;;;;9.93;5.03;;;6.30;99.90;;;;;;5034661;28;20054;-70
2022/04/09 08:49:46;;;;;;;9.52;5.45;;;6.30;99.90;;;;;;5025719;28;20065;-74
2022/04/09 08:52:14;;;;;;;10.77;5.30;;;6.40;99.90;;;;;;5035914;28;20079;-71
2022/04/09 08:54:41;;;;;;;13.93;4.82;;;6.50;99.90;;;;;;5023520;28;20406;-71
2022/04/09 08:57:08;;;;;;;10.60;4.75;;;6.50;99.90;;;;;;5047966;28;20054;-70
2022/04/09 08:59:35;;;;;;;10.52;4.78;;;6.50;99.90;;;;;;5054955;28;20048;-73
2022/04/09 09:02:02;;;;;;;9.70;3.80;;;6.50;99.90;;;;;;5021999;28;20057;-73
2022/04/09 09:04:29;;;;;;;7.82;4.43;;;6.60;99.90;;;;;;5046088;28;20080;-73
2022/04/09 09:07:25;;;;;;;9.77;4.50;;;6.60;99.90;;;;;;5028450;28;20059;-73
2022/04/09 09:09:52;;;;;;;10.45;5.25;;;6.60;99.90;;;;;;5046586;28;20045;-71
2022/04/09 09:12:39;;;;;;;113.32;76.63;;;6.70;99.90;;;;;;5039384;28;20046;-73
2022/04/09 09:15:07;;;;;;;14.50;8.77;;;6.90;99.90;;;;;;5034211;28;20050;-73
2022/04/09 09:17:34;;;;;;;12.88;6.40;;;7.00;99.90;;;;;;5043678;28;20060;-73
2022/04/09 09:20:01;;;;;;;12.98;5.35;;;7.00;99.90;;;;;;5044624;28;20128;-72
2022/04/09 09:22:42;;;;;;;8.77;3.97;;;7.00;99.90;;;;;;5037334;28;20057;-72
2022/04/09 09:25:10;;;;;;;8.35;3.45;;;7.10;99.90;;;;;;5022216;28;20133;-72
2022/04/09 09:27:38;;;;;;;5.45;2.53;;;7.20;99.90;;;;;;5034384;28;20050;-72
2022/04/09 09:30:06;;;;;;;8.65;3.25;;;7.40;99.90;;;;;;5041993;28;20099;-73
2022/04/09 09:32:34;;;;;;;8.45;3.47;;;7.40;99.90;;;;;;5044644;28;20052;-70
2022/04/09 09:35:12;;;;;;;9.05;3.58;;;7.40;99.90;;;;;;5021985;28;20041;-71
2022/04/09 09:37:39;;;;;;;4.50;2.38;;;7.50;99.90;;;;;;5037647;28;20386;-70
2022/04/09 09:40:08;;;;;;;8.55;3.35;;;7.50;99.90;;;;;;5024725;28;20110;-71
2022/04/09 09:42:35;;;;;;;5.93;3.23;;;7.60;99.90;;;;;;5041087;28;20413;-71
2022/04/09 09:45:05;;;;;;;11.02;2.83;;;7.60;99.90;;;;;;5029711;28;20041;-75
2022/04/09 09:47:34;;;;;;;6.85;2.60;;;7.60;99.90;;;;;;5041648;28;20045;-72
2022/04/09 09:50:01;;;;;;;7.00;2.70;;;7.80;99.90;;;;;;5044569;28;20041;-70
2022/04/09 09:52:34;;;;;;;14.35;8.20;;;7.80;99.90;;;;;;5039013;28;20060;-62
2022/04/09 09:55:10;;;;;;;16.58;9.75;;;8.00;99.90;;;;;;5051024;28;20123;-71
2022/04/09 09:57:41;;;;;;;7.70;2.75;;;8.10;99.90;;;;;;5032107;28;20057;-72
2022/04/09 10:00:10;;;;;;;9.70;3.28;;;8.20;99.90;;;;;;5034213;28;20041;-71
2022/04/09 10:02:41;;;;;;;6.30;2.15;;;8.30;99.90;;;;;;5043632;28;20071;-71
2022/04/09 10:05:08;;;;;;;10.48;2.92;;;8.50;99.90;;;;;;5038266;28;20057;-72
2022/04/09 10:07:36;;;;;;;6.32;2.30;;;8.70;99.90;;;;;;5043106;28;20045;-70
2022/04/09 10:10:04;;;;;;;6.20;2.65;;;8.80;99.90;;;;;;5047138;28;20045;-70
2022/04/09 10:12:38;;;;;;;6.18;2.47;;;8.80;96.00;;;;;;5015650;28;20071;-71
2022/04/09 10:15:06;;;;;;;3.92;1.73;;;8.70;91.10;;;;;;5018368;28;20048;-70
2022/04/09 10:17:33;;;;;;;4.93;1.73;;;8.70;91.30;;;;;;5043950;28;20053;-72
2022/04/09 10:20:02;;;;;;;8.10;2.85;;;8.70;91.00;;;;;;5049139;28;20047;-71
2022/04/09 10:22:41;;;;;;;3.80;1.87;;;8.90;93.00;;;;;;5018373;28;20054;-71
2022/04/09 10:25:08;;;;;;;;;;;9.00;91.80;;;;;;5048236;28;20053;-70
2022/04/09 10:27:43;;;;;;;6.95;2.40;;;9.00;91.10;;;;;;5037131;28;20008;-70
2022/04/09 10:30:16;;;;;;;9.80;2.55;;;9.10;90.50;;;;;;5046466;28;20556;-71
2022/04/09 10:32:46;;;;;;;6.35;2.25;;;9.00;88.60;;;;;;5037312;28;20493;-72
2022/04/09 10:35:26;;;;;;;5.30;1.67;;;9.00;91.20;;;;;;5018298;28;20049;-72
2022/04/09 10:38:09;;;;;;;39.90;25.20;;;8.80;81.90;;;;;;5051345;28;20057;-72
2022/04/09 10:40:57;;;;;;;10.25;4.63;;;8.70;80.90;;;;;;5019021;28;20067;-69
2022/04/09 10:43:27;;;;;;;216.30;159.10;;;8.60;82.30;;;;;;5047962;28;20056;-76
2022/04/09 10:46:11;;;;;;;30.50;19.38;;;8.70;83.10;;;;;;5034416;28;20436;-76
2022/04/09 10:48:40;;;;;;;9.80;4.78;;;8.80;81.70;;;;;;5034367;28;20076;-73
2022/04/09 10:51:14;;;;;;;12.17;4.27;;;8.80;82.40;;;;;;5032670;28;20075;-77
2022/04/09 10:53:45;;;;;;;5.50;2.05;;;8.90;84.50;;;;;;5019632;28;20049;-77
2022/04/09 10:56:21;;;;;;;6.03;2.65;;;8.90;81.90;;;;;;5035101;28;20045;-76
2022/04/09 10:59:06;;;;;;;8.68;2.50;;;8.80;79.40;;;;;;5031730;28;20045;-71
2022/04/09 11:01:46;;;;;;;9.48;3.30;;;8.80;80.60;;;;;;5033584;28;20050;-73
2022/04/09 11:07:17;;;;;;;5.70;1.98;;;9.00;78.80;;;;;;5044171;28;20132;-76
2022/04/09 11:09:56;;;;;;;3.22;1.45;;;9.00;74.40;;;;;;5008127;28;20046;-77
2022/04/09 11:12:45;;;;;;;7.72;2.45;;;9.10;76.20;;;;;;5026372;28;20041;-76
2022/04/09 11:15:15;;;;;;;3.50;1.88;;;9.20;75.00;;;;;;5032389;28;20045;-77
2022/04/09 11:17:45;;;;;;;4.47;1.60;;;9.40;73.80;;;;;;5031102;28;20544;-75
2022/04/09 11:20:16;;;;;;;2.30;1.30;;;9.50;72.80;;;;;;5030733;28;20057;-77
2022/04/09 11:22:55;;;;;;;5.47;1.73;;;9.50;74.20;;;;;;5039780;28;20060;-76
2022/04/09 11:25:29;;;;;;;4.13;1.50;;;9.60;70.30;;;;;;5024961;28;20438;-73
2022/04/09 11:28:19;;;;;;;5.00;1.52;;;9.70;67.90;;;;;;5035313;28;20045;-76
2022/04/09 11:31:00;;;;;;;19.27;11.90;;;9.70;69.80;;;;;;5030327;28;20045;-69
2022/04/09 11:33:28;;;;;;;10.02;5.05;;;9.70;73.10;;;;;;5031465;28;20049;-73
2022/04/09 11:35:55;;;;;;;5.00;2.22;;;9.80;70.60;;;;;;5027963;28;20060;-75
2022/04/09 11:38:26;;;;;;;6.40;1.80;;;9.90;70.20;;;;;;5028892;28;20493;-75
2022/04/09 11:40:54;;;;;;;4.35;2.15;;;9.90;69.80;;;;;;5008092;28;20041;-76
2022/04/09 11:43:22;;;;;;;2.90;1.48;;;10.10;70.20;;;;;;5026141;28;20825;-75
2022/04/09 11:45:49;;;;;;;4.28;1.65;;;10.20;70.80;;;;;;5026513;28;20049;-75
2022/04/09 11:48:21;;;;;;;4.47;1.73;;;10.30;70.10;;;;;;5011311;28;20057;-76
2022/04/09 11:50:48;;;;;;;4.57;1.77;;;10.40;69.60;;;;;;5030538;28;20060;-75
2022/04/09 11:53:24;;;;;;;7.13;1.73;;;10.50;70.30;;;;;;5039908;28;20131;-75
2022/04/09 11:56:01;;;;;;;32.22;23.42;;;10.60;70.40;;;;;;5012378;28;20382;-74
2022/04/09 11:58:33;;;;;;;38.90;32.78;;;10.70;67.20;;;;;;5022578;28;20167;-74
2022/04/09 12:01:00;;;;;;;9.35;4.75;;;10.80;69.50;;;;;;5048450;28;20041;-72
2022/04/09 12:03:28;;;;;;;3.90;2.13;;;10.70;66.30;;;;;;5048981;28;20048;-72
2022/04/09 12:05:55;;;;;;;5.45;2.42;;;10.60;66.30;;;;;;5033576;28;20057;-74
2022/04/09 12:08:24;;;;;;;4.60;2.17;;;10.70;68.40;;;;;;5015991;28;20069;-73
2022/04/09 12:10:58;;;;;;;7.35;2.72;;;10.70;66.40;;;;;;5043189;28;20049;-74
2022/04/09 12:13:26;;;;;;;3.88;1.73;;;10.60;64.30;;;;;;5033401;28;20053;-73
2022/04/09 12:15:53;;;;;;;6.15;2.05;;;10.60;66.70;;;;;;5031434;28;20508;-73
2022/04/09 12:18:28;;;;;;;3.33;1.52;;;10.50;66.30;;;;;;5029370;28;20053;-73
2022/04/09 12:20:55;;;;;;;9.68;5.55;;;10.60;62.80;;;;;;5030778;28;20052;-73
2022/04/09 12:23:32;;;;;;;5.15;2.30;;;10.70;68.40;;;;;;5029485;28;20049;-73
2022/04/09 12:26:00;;;;;;;4.38;1.60;;;11.10;65.80;;;;;;5041809;28;20416;-74
2022/04/09 12:28:31;;;;;;;3.85;1.48;;;11.20;65.10;;;;;;5004334;28;20443;-74
2022/04/09 12:31:00;;;;;;;4.35;1.30;;;11.30;64.70;;;;;;5039440;28;20047;-75
2022/04/09 12:33:28;;;;;;;4.70;1.55;;;11.40;63.50;;;;;;5043211;28;20140;-75
2022/04/09 12:36:08;;;;;;;9.20;2.35;;;11.40;64.30;;;;;;5035773;28;20056;-75
2022/04/09 12:38:37;;;;;;;3.70;1.40;;;11.30;63.70;;;;;;5033418;28;20120;-74
2022/04/09 12:41:05;;;;;;;4.35;1.55;;;11.20;63.40;;;;;;5033579;28;20041;-75
2022/04/09 12:43:36;;;;;;;4.97;2.30;;;11.20;63.60;;;;;;5037484;28;20063;-74
2022/04/09 12:46:14;;;;;;;3.08;1.30;;;11.20;63.60;;;;;;5023154;28;20041;-75
2022/04/09 12:48:51;;;;;;;4.38;1.70;;;11.20;63.10;;;;;;5042190;28;20048;-75
2022/04/09 12:51:22;;;;;;;4.45;2.10;;;11.50;62.00;;;;;;5038010;28;20554;-72
2022/04/09 12:53:51;;;;;;;4.55;1.40;;;11.60;61.60;;;;;;4999555;28;20497;-73
2022/04/09 12:56:18;;;;;;;3.10;1.40;;;11.90;62.70;;;;;;5032007;28;20092;-75
2022/04/09 12:58:45;;;;;;;2.25;1.42;;;12.00;61.20;;;;;;5049721;28;20060;-74
2022/04/09 13:01:17;;;;;;;6.07;1.90;;;12.10;60.80;;;;;;5032890;28;20050;-74
2022/04/09 13:03:44;;;;;;;3.90;1.70;;;12.40;63.50;;;;;;5029311;28;20058;-75